createdAt,value
2022-09-11T00:00:18.355Z,98.68
2022-09-11T00:01:18.666Z,98.63
2022-09-11T00:02:18.343Z,98.57
2022-09-11T00:03:18.314Z,98.63
2022-09-11T00:04:18.293Z,98.52
2022-09-11T00:05:18.713Z,98.63
2022-09-11T00:06:28.838Z,98.73
2022-09-11T00:07:19.253Z,98.73
2022-09-11T00:08:18.241Z,98.88
2022-09-11T00:09:18.245Z,98.77
2022-09-11T00:10:18.212Z,98.77
2022-09-11T00:11:18.620Z,98.77
2022-09-11T00:12:18.192Z,98.63
2022-09-11T00:13:18.176Z,98.68
2022-09-11T00:14:18.161Z,98.63
2022-09-11T00:15:18.632Z,98.57
2022-09-11T00:16:18.186Z,98.57
2022-09-11T00:17:18.117Z,98.63
2022-09-11T00:18:18.105Z,98.52
2022-09-11T00:19:18.098Z,98.52
2022-09-11T00:20:18.078Z,98.43
2022-09-11T00:21:18.424Z,98.57
2022-09-11T00:22:18.060Z,98.63
2022-09-11T00:23:18.031Z,98.52
2022-09-11T00:24:18.032Z,98.52
2022-09-11T00:25:18.340Z,98.43
2022-09-11T00:26:18.008Z,98.32
2022-09-11T00:27:17.994Z,98.32
2022-09-11T00:28:17.983Z,98.12
2022-09-11T00:29:17.960Z,98.12
2022-09-11T00:30:17.940Z,98.02
2022-09-11T00:31:18.309Z,97.81
2022-09-11T00:32:17.928Z,97.81
2022-09-11T00:33:17.897Z,97.92
2022-09-11T00:34:17.892Z,97.71
2022-09-11T00:35:18.291Z,97.71
2022-09-11T00:36:17.865Z,97.71
2022-09-11T00:37:17.856Z,97.61
2022-09-11T00:38:17.840Z,97.41
2022-09-11T00:39:17.829Z,97.51
2022-09-11T00:40:17.809Z,97.41
2022-09-11T00:41:18.219Z,97.51
2022-09-11T00:42:17.799Z,97.51
2022-09-11T00:43:17.777Z,97.51
2022-09-11T00:44:17.766Z,97.51
2022-09-11T00:45:18.177Z,97.61
2022-09-11T00:46:17.728Z,97.71
2022-09-11T00:47:17.730Z,97.61
2022-09-11T00:48:17.706Z,97.51
2022-09-11T00:49:17.692Z,97.41
2022-09-11T00:50:19.419Z,97.20
2022-09-11T00:51:18.086Z,97.20
2022-09-11T00:52:17.665Z,97.11
2022-09-11T00:53:17.625Z,97.11
2022-09-11T00:54:17.625Z,97.11
2022-09-11T00:55:17.975Z,97.20
2022-09-11T00:56:17.598Z,97.31
2022-09-11T00:57:17.586Z,97.11
2022-09-11T00:58:17.565Z,97.20
2022-09-11T00:59:17.565Z,97.20
2022-09-11T01:00:17.546Z,97.31
2022-09-11T01:01:17.863Z,97.41
2022-09-11T01:02:17.532Z,97.20
2022-09-11T01:03:17.513Z,97.41
2022-09-11T01:04:17.493Z,97.31
2022-09-11T01:05:17.904Z,97.31
2022-09-11T01:06:17.462Z,97.31
2022-09-11T01:07:17.455Z,97.31
2022-09-11T01:08:17.442Z,97.31
2022-09-11T01:09:17.424Z,97.31
2022-09-11T01:10:17.415Z,97.31
2022-09-11T01:11:17.710Z,97.31
2022-09-11T01:12:17.383Z,97.31
2022-09-11T01:13:17.368Z,97.11
2022-09-11T01:14:17.360Z,97.11
2022-09-11T01:15:17.661Z,97.20
2022-09-11T01:16:17.388Z,97.11
2022-09-11T01:17:17.311Z,97.00
2022-09-11T01:18:17.303Z,97.20
2022-09-11T01:19:17.291Z,97.11
2022-09-11T01:20:17.280Z,97.11
2022-09-11T01:21:17.581Z,97.20
2022-09-11T01:22:17.260Z,97.11
2022-09-11T01:23:17.232Z,97.11
2022-09-11T01:24:17.219Z,97.20
2022-09-11T01:25:17.632Z,97.11
2022-09-11T01:26:17.199Z,97.20
2022-09-11T01:27:17.179Z,97.31
2022-09-11T01:28:17.166Z,97.41
2022-09-11T01:29:17.167Z,97.51
2022-09-11T01:30:17.147Z,97.81
2022-09-11T01:31:17.499Z,98.02
2022-09-11T01:32:17.117Z,98.12
2022-09-11T01:33:17.105Z,98.52
2022-09-11T01:34:17.090Z,98.73
2022-09-11T01:35:17.488Z,98.93
2022-09-11T01:36:17.060Z,99.24
2022-09-11T01:37:17.038Z,99.33
2022-09-11T01:38:17.038Z,99.33
2022-09-11T01:39:17.017Z,99.33
2022-09-11T01:40:17.004Z,99.33
2022-09-11T01:41:17.427Z,99.54
2022-09-11T01:42:16.984Z,99.58
2022-09-11T01:43:16.967Z,99.44
2022-09-11T01:44:16.956Z,99.58
2022-09-11T01:45:17.287Z,99.49
2022-09-11T01:46:16.952Z,99.64
2022-09-11T01:47:16.918Z,99.58
2022-09-11T01:48:16.907Z,99.49
2022-09-11T01:49:16.885Z,99.64
2022-09-11T01:50:16.875Z,99.74
2022-09-11T01:51:17.293Z,99.74
2022-09-11T01:52:16.845Z,99.74
2022-09-11T01:53:16.833Z,99.64
2022-09-11T01:54:16.824Z,99.64
2022-09-11T01:55:17.231Z,99.44
2022-09-11T01:56:16.794Z,99.44
2022-09-11T01:57:16.782Z,99.24
2022-09-11T01:58:16.764Z,99.13
2022-09-11T01:59:16.757Z,99.13
2022-09-11T02:00:17.104Z,99.24
2022-09-11T02:01:16.742Z,99.33
2022-09-11T02:02:16.782Z,99.33
2022-09-11T02:03:16.715Z,99.54
2022-09-11T02:04:16.683Z,99.44
2022-09-11T02:05:17.011Z,99.54
2022-09-11T02:06:16.662Z,99.58
2022-09-11T02:07:16.652Z,99.58
2022-09-11T02:08:16.633Z,99.58
2022-09-11T02:09:16.621Z,99.79
2022-09-11T02:10:16.610Z,99.99
2022-09-11T02:11:17.031Z,99.99
2022-09-11T02:12:16.600Z,99.99
2022-09-11T02:13:16.575Z,99.99
2022-09-11T02:14:16.560Z,99.99
2022-09-11T02:15:16.932Z,99.99
2022-09-11T02:16:16.593Z,99.99
2022-09-11T02:17:16.520Z,99.99
2022-09-11T02:18:16.500Z,99.99
2022-09-11T02:19:16.491Z,99.99
2022-09-11T02:20:16.485Z,99.99
2022-09-11T02:21:16.821Z,99.99
2022-09-11T02:22:16.450Z,99.99
2022-09-11T02:23:16.439Z,99.99
2022-09-11T02:24:16.430Z,99.99
2022-09-11T02:25:16.838Z,99.99
2022-09-11T02:26:16.392Z,99.99
2022-09-11T02:27:16.387Z,99.99
2022-09-11T02:28:16.368Z,99.99
2022-09-11T02:29:16.363Z,99.99
2022-09-11T02:30:16.361Z,99.99
2022-09-11T02:31:16.757Z,99.99
2022-09-11T02:32:16.317Z,99.99
2022-09-11T02:33:16.308Z,99.99
2022-09-11T02:34:16.288Z,99.99
2022-09-11T02:35:16.708Z,99.99
2022-09-11T02:36:16.257Z,99.99
2022-09-11T02:37:16.252Z,99.99
2022-09-11T02:38:16.245Z,99.99
2022-09-11T02:39:16.218Z,99.99
2022-09-11T02:40:16.251Z,99.99
2022-09-11T02:41:16.627Z,99.99
2022-09-11T02:42:16.176Z,99.99
2022-09-11T02:43:16.186Z,99.99
2022-09-11T02:44:16.156Z,99.99
2022-09-11T02:45:16.483Z,99.99
2022-09-11T02:46:16.127Z,99.99
2022-09-11T02:47:16.127Z,99.99
2022-09-11T02:48:16.105Z,99.99
2022-09-11T02:49:16.095Z,99.99
2022-09-11T02:50:16.507Z,99.99
2022-09-11T02:51:16.066Z,99.99
2022-09-11T02:52:16.045Z,99.99
2022-09-11T02:53:16.041Z,99.99
2022-09-11T02:54:16.025Z,99.99
2022-09-11T02:55:16.383Z,99.99
2022-09-11T02:56:15.988Z,99.99
2022-09-11T02:57:15.976Z,99.99
2022-09-11T02:58:15.964Z,99.99
2022-09-11T02:59:15.953Z,99.89
2022-09-11T03:00:15.968Z,99.69
2022-09-11T03:01:16.311Z,99.58
2022-09-11T03:02:15.957Z,99.69
2022-09-11T03:03:15.896Z,99.58
2022-09-11T03:04:15.878Z,99.79
2022-09-11T03:05:16.283Z,99.79
2022-09-11T03:06:15.849Z,99.58
2022-09-11T03:07:15.832Z,99.58
2022-09-11T03:08:15.830Z,99.64
2022-09-11T03:09:15.824Z,99.64
2022-09-11T03:10:15.799Z,99.54
2022-09-11T03:11:16.160Z,99.54
2022-09-11T03:12:15.781Z,99.44
2022-09-11T03:13:15.760Z,99.44
2022-09-11T03:14:15.742Z,99.33
2022-09-11T03:15:16.171Z,99.24
2022-09-11T03:16:15.758Z,99.13
2022-09-11T03:17:15.725Z,99.04
2022-09-11T03:18:15.697Z,99.04
2022-09-11T03:19:15.686Z,99.04
2022-09-11T03:20:16.042Z,99.24
2022-09-11T03:21:15.647Z,99.13
2022-09-11T03:22:15.658Z,99.04
2022-09-11T03:23:15.628Z,99.24
2022-09-11T03:24:15.600Z,99.33
2022-09-11T03:25:16.028Z,99.44
2022-09-11T03:26:15.582Z,99.24
2022-09-11T03:27:15.559Z,99.33
2022-09-11T03:28:15.556Z,99.13
2022-09-11T03:29:15.537Z,99.24
2022-09-11T03:30:15.520Z,99.33
2022-09-11T03:31:15.981Z,99.44
2022-09-11T03:32:15.505Z,99.54
2022-09-11T03:33:15.478Z,99.44
2022-09-11T03:34:15.470Z,99.44
2022-09-11T03:35:15.817Z,99.13
2022-09-11T03:36:15.438Z,99.24
2022-09-11T03:37:15.427Z,99.33
2022-09-11T03:38:15.416Z,99.33
2022-09-11T03:39:15.404Z,99.24
2022-09-11T03:40:15.434Z,99.33
2022-09-11T03:41:15.823Z,99.33
2022-09-11T03:42:15.360Z,99.24
2022-09-11T03:43:15.355Z,99.44
2022-09-11T03:44:15.325Z,99.33
2022-09-11T03:45:15.722Z,99.33
2022-09-11T03:46:15.312Z,99.24
2022-09-11T03:47:15.300Z,99.33
2022-09-11T03:48:15.282Z,99.33
2022-09-11T03:49:15.264Z,99.24
2022-09-11T03:50:15.259Z,99.33
2022-09-11T03:51:15.667Z,99.33
2022-09-11T03:52:15.325Z,99.24
2022-09-11T03:53:15.213Z,99.33
2022-09-11T03:54:15.200Z,99.44
2022-09-11T03:55:15.601Z,99.54
2022-09-11T03:56:15.193Z,99.54
2022-09-11T03:57:15.160Z,99.44
2022-09-11T03:58:15.149Z,99.44
2022-09-11T03:59:15.133Z,99.44
2022-09-11T04:00:15.260Z,99.54
2022-09-11T04:01:15.571Z,99.64
2022-09-11T04:02:15.159Z,99.64
2022-09-11T04:03:15.082Z,99.54
2022-09-11T04:04:15.062Z,99.64
2022-09-11T04:05:15.431Z,99.54
2022-09-11T04:06:15.031Z,99.64
2022-09-11T04:07:15.028Z,99.69
2022-09-11T04:08:15.032Z,99.74
2022-09-11T04:09:14.993Z,99.79
2022-09-11T04:10:14.971Z,99.85
2022-09-11T04:11:15.492Z,99.89
2022-09-11T04:12:14.980Z,99.74
2022-09-11T04:13:14.930Z,99.74
2022-09-11T04:14:14.960Z,99.74
2022-09-11T04:15:15.233Z,99.89
2022-09-11T04:16:14.943Z,99.79
2022-09-11T04:17:14.889Z,99.79
2022-09-11T04:18:14.941Z,99.89
2022-09-11T04:19:14.849Z,99.99
2022-09-11T04:20:14.905Z,99.99
2022-09-11T04:21:15.401Z,99.99
2022-09-11T04:22:14.855Z,99.99
2022-09-11T04:23:14.798Z,99.99
2022-09-11T04:24:14.968Z,99.99
2022-09-11T04:25:15.219Z,99.99
2022-09-11T04:26:14.759Z,99.99
2022-09-11T04:27:14.747Z,99.99
2022-09-11T04:28:14.727Z,99.99
2022-09-11T04:29:14.718Z,99.89
2022-09-11T04:30:14.697Z,99.99
2022-09-11T04:31:15.098Z,99.99
2022-09-11T04:32:14.676Z,99.99
2022-09-11T04:33:14.666Z,99.99
2022-09-11T04:34:14.647Z,99.99
2022-09-11T04:35:15.077Z,99.99
2022-09-11T04:36:14.617Z,99.99
2022-09-11T04:37:14.606Z,99.99
2022-09-11T04:38:14.597Z,99.99
2022-09-11T04:39:14.576Z,99.99
2022-09-11T04:40:14.618Z,99.99
2022-09-11T04:41:14.883Z,99.99
2022-09-11T04:42:14.552Z,99.99
2022-09-11T04:43:14.536Z,99.99
2022-09-11T04:44:14.594Z,99.99
2022-09-11T04:45:15.024Z,99.99
2022-09-11T04:46:14.605Z,99.99
2022-09-11T04:47:14.569Z,99.99
2022-09-11T04:48:14.515Z,99.89
2022-09-11T04:49:14.484Z,99.89
2022-09-11T04:50:14.463Z,99.89
2022-09-11T04:51:14.414Z,99.74
2022-09-11T04:52:14.406Z,99.85
2022-09-11T04:53:14.413Z,99.74
2022-09-11T04:54:14.394Z,99.64
2022-09-11T04:55:14.733Z,99.54
2022-09-11T04:56:14.350Z,99.64
2022-09-11T04:57:14.340Z,99.44
2022-09-11T04:58:14.324Z,99.44
2022-09-11T04:59:14.315Z,99.44
2022-09-11T05:00:14.610Z,99.44
2022-09-11T05:01:14.308Z,99.33
2022-09-11T05:02:14.319Z,99.24
2022-09-11T05:03:14.253Z,99.33
2022-09-11T05:04:14.238Z,99.13
2022-09-11T05:05:14.588Z,99.04
2022-09-11T05:06:14.234Z,99.13
2022-09-11T05:07:14.200Z,99.04
2022-09-11T05:08:14.190Z,99.04
2022-09-11T05:09:14.171Z,98.93
2022-09-11T05:10:14.150Z,98.93
2022-09-11T05:11:14.588Z,98.93
2022-09-11T05:12:14.130Z,99.04
2022-09-11T05:13:14.134Z,98.93
2022-09-11T05:14:14.098Z,98.93
2022-09-11T05:15:14.511Z,98.93
2022-09-11T05:16:14.101Z,98.83
2022-09-11T05:17:14.059Z,98.93
2022-09-11T05:18:14.046Z,98.93
2022-09-11T05:19:14.040Z,98.93
2022-09-11T05:20:14.458Z,99.13
2022-09-11T05:21:14.000Z,98.83
2022-09-11T05:22:13.990Z,98.83
2022-09-11T05:23:13.975Z,98.93
2022-09-11T05:24:13.966Z,98.93
2022-09-11T05:25:14.375Z,99.04
2022-09-11T05:26:13.928Z,99.04
2022-09-11T05:27:13.917Z,98.93
2022-09-11T05:28:13.907Z,99.04
2022-09-11T05:29:13.898Z,98.99
2022-09-11T05:30:13.907Z,98.79
2022-09-11T05:31:13.907Z,98.79
2022-09-11T05:32:13.855Z,98.79
2022-09-11T05:33:13.906Z,98.68
2022-09-11T05:34:13.831Z,98.68
2022-09-11T05:35:14.275Z,98.68
2022-09-11T05:36:13.793Z,98.68
2022-09-11T05:37:13.782Z,98.68
2022-09-11T05:38:13.782Z,98.68
2022-09-11T05:39:13.766Z,98.58
2022-09-11T05:40:13.752Z,98.68
2022-09-11T05:41:13.756Z,98.79
2022-09-11T05:42:13.723Z,98.79
2022-09-11T05:43:14.662Z,98.88
2022-09-11T05:44:13.695Z,98.79
2022-09-11T05:45:15.030Z,98.68
2022-09-11T05:46:13.653Z,98.58
2022-09-11T05:47:13.645Z,98.48
2022-09-11T05:48:13.623Z,98.58
2022-09-11T05:49:13.621Z,98.48
2022-09-11T05:50:13.593Z,98.48
2022-09-11T05:51:13.822Z,98.38
2022-09-11T05:52:13.576Z,98.38
2022-09-11T05:53:13.567Z,98.38
2022-09-11T05:54:13.555Z,98.28
2022-09-11T05:55:13.586Z,98.28
2022-09-11T05:56:13.516Z,98.33
2022-09-11T05:57:13.513Z,98.23
2022-09-11T05:58:13.487Z,97.92
2022-09-11T05:59:13.481Z,97.92
2022-09-11T06:00:13.471Z,97.83
2022-09-11T06:01:13.571Z,97.83
2022-09-11T06:02:13.478Z,97.72
2022-09-11T06:03:15.440Z,97.62
2022-09-11T06:04:13.425Z,97.42
2022-09-11T06:05:13.820Z,97.38
2022-09-11T06:06:13.392Z,97.38
2022-09-11T06:07:13.382Z,97.27
2022-09-11T06:08:13.360Z,97.07
2022-09-11T06:09:13.350Z,97.07
2022-09-11T06:10:13.351Z,96.97
2022-09-11T06:11:13.584Z,96.97
2022-09-11T06:12:13.318Z,96.87
2022-09-11T06:13:13.299Z,97.07
2022-09-11T06:14:13.300Z,97.07
2022-09-11T06:15:36.379Z,96.97
2022-09-11T06:16:18.108Z,96.97
2022-09-11T06:17:13.248Z,96.87
2022-09-11T06:18:13.271Z,96.87
2022-09-11T06:19:13.218Z,96.77
2022-09-11T06:20:13.660Z,96.66
2022-09-11T06:21:13.236Z,96.62
2022-09-11T06:22:13.480Z,96.51
2022-09-11T06:23:13.205Z,96.51
2022-09-11T06:24:13.165Z,96.11
2022-09-11T06:25:13.522Z,96.22
2022-09-11T06:26:13.141Z,96.22
2022-09-11T06:27:13.138Z,96.11
2022-09-11T06:28:13.097Z,96.01
2022-09-11T06:29:13.153Z,95.71
2022-09-11T06:30:13.077Z,95.66
2022-09-11T06:31:13.631Z,95.56
2022-09-11T06:32:13.063Z,95.36
2022-09-11T06:33:13.109Z,95.15
2022-09-11T06:34:13.028Z,95.26
2022-09-11T06:35:13.376Z,95.46
2022-09-11T06:36:13.025Z,95.46
2022-09-11T06:37:12.983Z,95.36
2022-09-11T06:38:12.977Z,95.26
2022-09-11T06:39:12.970Z,95.15
2022-09-11T06:40:13.475Z,95.26
2022-09-11T06:41:12.937Z,95.15
2022-09-11T06:42:12.918Z,95.26
2022-09-11T06:43:12.996Z,95.06
2022-09-11T06:44:12.894Z,95.06
2022-09-11T06:45:12.887Z,94.85
2022-09-11T06:46:13.409Z,94.95
2022-09-11T06:47:12.853Z,94.95
2022-09-11T06:48:12.844Z,94.85
2022-09-11T06:49:12.816Z,94.75
2022-09-11T06:50:12.974Z,94.75
2022-09-11T06:51:13.352Z,94.95
2022-09-11T06:52:12.796Z,94.95
2022-09-11T06:53:12.783Z,94.95
2022-09-11T06:54:12.762Z,94.91
2022-09-11T06:55:12.773Z,94.81
2022-09-11T06:56:12.765Z,94.60
2022-09-11T06:57:12.763Z,94.65
2022-09-11T06:58:13.971Z,94.95
2022-09-11T06:59:12.852Z,94.85
2022-09-11T07:00:12.754Z,94.95
2022-09-11T07:01:12.956Z,95.06
2022-09-11T07:02:12.788Z,94.81
2022-09-11T07:03:12.698Z,94.81
2022-09-11T07:04:12.640Z,94.71
2022-09-11T07:05:12.611Z,94.81
2022-09-11T07:06:12.632Z,94.81
2022-09-11T07:07:12.679Z,94.71
2022-09-11T07:08:12.587Z,94.60
2022-09-11T07:09:12.870Z,94.40
2022-09-11T07:10:12.555Z,94.30
2022-09-11T07:11:12.530Z,94.30
2022-09-11T07:12:12.543Z,94.15
2022-09-11T07:13:12.504Z,94.06
2022-09-11T07:14:13.129Z,93.85
2022-09-11T07:15:12.890Z,93.65
2022-09-11T07:16:12.605Z,93.44
2022-09-11T07:17:12.504Z,93.65
2022-09-11T07:18:12.448Z,93.10
2022-09-11T07:19:12.430Z,93.20
2022-09-11T07:20:12.419Z,93.20
2022-09-11T07:21:13.457Z,93.20
2022-09-11T07:22:13.929Z,93.10
2022-09-11T07:23:12.890Z,92.60
2022-09-11T07:24:12.390Z,92.80
2022-09-11T07:25:12.718Z,92.60
2022-09-11T07:26:12.348Z,92.45
2022-09-11T07:27:12.321Z,92.05
2022-09-11T07:28:12.321Z,91.94
2022-09-11T07:29:12.452Z,91.94
2022-09-11T07:30:12.322Z,91.70
2022-09-11T07:31:13.811Z,91.30
2022-09-11T07:32:12.258Z,90.99
2022-09-11T07:33:12.256Z,90.55
2022-09-11T07:34:12.234Z,89.94
2022-09-11T07:35:12.315Z,89.79
2022-09-11T07:36:12.335Z,89.39
2022-09-11T07:37:12.589Z,88.99
2022-09-11T07:38:12.397Z,89.09
2022-09-11T07:39:12.190Z,88.89
2022-09-11T07:40:12.279Z,89.09
2022-09-11T07:41:12.149Z,89.19
2022-09-11T07:42:12.122Z,89.59
2022-09-11T07:43:12.477Z,89.54
2022-09-11T07:44:12.105Z,89.84
2022-09-11T07:45:12.087Z,89.94
2022-09-11T07:46:12.147Z,90.14
2022-09-11T07:47:12.046Z,89.94
2022-09-11T07:48:12.055Z,89.90
2022-09-11T07:49:12.347Z,89.90
2022-09-11T07:50:12.025Z,89.59
2022-09-11T07:51:12.006Z,89.59
2022-09-11T07:52:16.614Z,89.59
2022-09-11T07:53:11.986Z,89.39
2022-09-11T07:54:11.967Z,89.09
2022-09-11T07:55:12.374Z,89.39
2022-09-11T07:56:11.957Z,89.39
2022-09-11T07:57:11.915Z,89.50
2022-09-11T07:58:11.910Z,89.19
2022-09-11T07:59:11.897Z,89.59
2022-09-11T08:00:11.888Z,89.94
2022-09-11T08:01:12.218Z,90.24
2022-09-11T08:02:11.894Z,90.24
2022-09-11T08:03:11.846Z,90.89
2022-09-11T08:04:11.864Z,90.99
2022-09-11T08:05:12.336Z,91.19
2022-09-11T08:06:11.838Z,91.39
2022-09-11T08:07:12.215Z,91.60
2022-09-11T08:08:11.810Z,91.70
2022-09-11T08:09:11.769Z,91.80
2022-09-11T08:10:26.576Z,91.19
2022-09-11T08:11:12.745Z,91.60
2022-09-11T08:12:11.745Z,91.74
2022-09-11T08:13:12.144Z,92.05
2022-09-11T08:14:11.708Z,91.85
2022-09-11T08:15:11.684Z,91.94
2022-09-11T08:16:11.734Z,91.94
2022-09-11T08:17:11.666Z,92.05
2022-09-11T08:18:11.674Z,92.14
2022-09-11T08:19:12.063Z,91.90
2022-09-11T08:20:11.630Z,91.70
2022-09-11T08:21:13.099Z,91.19
2022-09-11T08:22:11.603Z,90.99
2022-09-11T08:23:11.585Z,90.95
2022-09-11T08:24:11.579Z,91.25
2022-09-11T08:25:11.983Z,90.45
2022-09-11T08:26:11.572Z,90.34
2022-09-11T08:27:11.530Z,90.34
2022-09-11T08:28:11.519Z,90.00
2022-09-11T08:29:11.503Z,89.90
2022-09-11T08:30:11.500Z,89.35
2022-09-11T08:31:11.946Z,89.25
2022-09-11T08:32:11.487Z,88.85
2022-09-11T08:33:11.453Z,88.54
2022-09-11T08:34:11.448Z,88.75
2022-09-11T08:35:11.422Z,88.50
2022-09-11T08:36:11.414Z,88.50
2022-09-11T08:37:11.857Z,87.84
2022-09-11T08:38:11.385Z,88.14
2022-09-11T08:39:11.373Z,88.68
2022-09-11T08:40:11.414Z,88.68
2022-09-11T08:41:11.344Z,89.19
2022-09-11T08:42:11.343Z,89.70
2022-09-11T08:43:11.733Z,89.50
2022-09-11T08:44:11.303Z,89.50
2022-09-11T08:45:11.300Z,88.75
2022-09-11T08:46:11.326Z,88.54
2022-09-11T08:47:11.309Z,88.04
2022-09-11T08:48:11.282Z,88.50
2022-09-11T08:49:11.240Z,88.00
2022-09-11T08:50:11.287Z,87.80
2022-09-11T08:51:11.212Z,87.70
2022-09-11T08:52:11.242Z,87.70
2022-09-11T08:53:12.921Z,87.49
2022-09-11T08:54:11.190Z,87.60
2022-09-11T08:55:11.160Z,87.80
2022-09-11T08:56:11.150Z,87.90
2022-09-11T08:57:11.174Z,87.70
2022-09-11T08:58:11.129Z,87.90
2022-09-11T08:59:11.150Z,87.60
2022-09-11T09:00:11.110Z,86.85
2022-09-11T09:01:11.138Z,86.85
2022-09-11T09:02:11.136Z,86.55
2022-09-11T09:03:11.052Z,86.10
2022-09-11T09:04:11.049Z,86.00
2022-09-11T09:05:11.058Z,86.00
2022-09-11T09:06:11.015Z,85.76
2022-09-11T09:07:11.036Z,85.05
2022-09-11T09:08:11.018Z,84.71
2022-09-11T09:09:10.979Z,84.27
2022-09-11T09:10:11.644Z,83.83
2022-09-11T09:11:11.321Z,82.72
2022-09-11T09:12:10.943Z,81.88
2022-09-11T09:13:10.910Z,81.78
2022-09-11T09:14:10.920Z,81.24
2022-09-11T09:15:10.939Z,81.04
2022-09-11T09:16:11.384Z,79.69
2022-09-11T09:17:10.931Z,78.99
2022-09-11T09:18:10.910Z,78.55
2022-09-11T09:19:10.937Z,78.31
2022-09-11T09:20:10.842Z,77.87
2022-09-11T09:21:10.889Z,77.44
2022-09-11T09:22:10.817Z,75.60
2022-09-11T09:23:10.790Z,74.87
2022-09-11T09:24:10.828Z,74.46
2022-09-11T09:25:10.821Z,73.96
2022-09-11T09:26:10.842Z,74.16
2022-09-11T09:27:11.289Z,75.00
2022-09-11T09:28:10.739Z,75.10
2022-09-11T09:29:10.711Z,75.04
2022-09-11T09:30:10.699Z,76.17
2022-09-11T09:31:10.877Z,77.21
2022-09-11T09:32:10.687Z,77.51
2022-09-11T09:33:13.288Z,77.75
2022-09-11T09:34:10.639Z,78.29
2022-09-11T09:35:10.649Z,79.39
2022-09-11T09:36:11.670Z,79.53
2022-09-11T09:37:11.050Z,79.93
2022-09-11T09:38:11.475Z,80.37
2022-09-11T09:39:10.879Z,81.21
2022-09-11T09:40:10.809Z,82.52
2022-09-11T09:41:10.549Z,83.67
2022-09-11T09:42:10.540Z,84.07
2022-09-11T09:43:10.530Z,84.88
2022-09-11T09:44:10.520Z,84.37
2022-09-11T09:45:10.627Z,84.88
2022-09-11T09:46:11.109Z,85.48
2022-09-11T09:47:10.530Z,85.82
2022-09-11T09:48:10.467Z,86.43
2022-09-11T09:49:10.472Z,86.32
2022-09-11T09:50:10.445Z,86.28
2022-09-11T09:51:10.779Z,85.88
2022-09-11T09:52:10.406Z,85.88
2022-09-11T09:53:10.394Z,85.53
2022-09-11T09:54:10.398Z,84.83
2022-09-11T09:55:10.371Z,84.63
2022-09-11T09:56:10.361Z,85.64
2022-09-11T09:57:10.478Z,83.93
2022-09-11T09:58:10.347Z,83.43
2022-09-11T09:59:10.349Z,83.33
2022-09-11T10:00:10.337Z,84.53
2022-09-11T10:01:10.440Z,83.93
2022-09-11T10:02:10.850Z,81.92
2022-09-11T10:03:10.301Z,82.22
2022-09-11T10:04:10.326Z,82.62
2022-09-11T10:05:10.289Z,84.23
2022-09-11T10:06:10.228Z,81.41
2022-09-11T10:07:11.417Z,80.81
2022-09-11T10:08:10.234Z,82.12
2022-09-11T10:09:10.189Z,82.08
2022-09-11T10:10:10.192Z,81.38
2022-09-11T10:11:10.176Z,82.08
2022-09-11T10:12:10.153Z,81.00
2022-09-11T10:13:19.296Z,79.25
2022-09-11T10:14:13.627Z,77.48
2022-09-11T10:15:11.124Z,77.44
2022-09-11T10:16:10.137Z,76.04
2022-09-11T10:17:10.079Z,75.23
2022-09-11T10:18:10.084Z,74.76
2022-09-11T10:19:10.344Z,75.46
2022-09-11T10:20:10.039Z,75.13
2022-09-11T10:21:10.029Z,74.53
2022-09-11T10:22:10.021Z,74.73
2022-09-11T10:23:10.007Z,71.23
2022-09-11T10:24:10.002Z,71.76
2022-09-11T10:25:10.368Z,72.60
2022-09-11T10:26:09.970Z,73.60
2022-09-11T10:27:09.958Z,73.80
2022-09-11T10:28:09.948Z,71.43
2022-09-11T10:29:09.935Z,72.73
2022-09-11T10:30:09.939Z,72.23
2022-09-11T10:31:10.253Z,71.77
2022-09-11T10:32:09.887Z,73.57
2022-09-11T10:33:09.899Z,73.63
2022-09-11T10:34:09.878Z,73.77
2022-09-11T10:35:09.851Z,73.77
2022-09-11T10:36:09.838Z,74.17
2022-09-11T10:37:10.128Z,74.47
2022-09-11T10:38:09.808Z,73.16
2022-09-11T10:39:09.820Z,71.77
2022-09-11T10:40:09.846Z,72.43
2022-09-11T10:41:09.784Z,73.63
2022-09-11T10:42:09.756Z,73.50
2022-09-11T10:43:10.106Z,72.80
2022-09-11T10:44:09.718Z,71.89
2022-09-11T10:45:09.724Z,73.53
2022-09-11T10:46:09.750Z,73.97
2022-09-11T10:47:09.688Z,74.60
2022-09-11T10:48:09.721Z,75.34
2022-09-11T10:49:09.878Z,76.15
2022-09-11T10:50:09.692Z,76.65
2022-09-11T10:51:09.672Z,76.15
2022-09-11T10:52:09.737Z,77.91
2022-09-11T10:53:09.629Z,78.72
2022-09-11T10:54:09.632Z,76.54
2022-09-11T10:55:09.587Z,78.15
2022-09-11T10:56:09.575Z,77.31
2022-09-11T10:57:09.562Z,77.61
2022-09-11T10:58:09.547Z,74.27
2022-09-11T10:59:09.901Z,75.13
2022-09-11T11:00:09.541Z,73.60
2022-09-11T11:01:09.575Z,71.12
2022-09-11T11:02:09.522Z,72.63
2022-09-11T11:03:09.506Z,73.23
2022-09-11T11:04:12.339Z,72.30
2022-09-11T11:05:09.668Z,72.19
2022-09-11T11:06:10.946Z,71.09
2022-09-11T11:07:09.427Z,72.33
2022-09-11T11:08:09.419Z,73.10
2022-09-11T11:09:09.654Z,72.50
2022-09-11T11:10:09.406Z,71.59
2022-09-11T11:11:09.378Z,71.00
2022-09-11T11:12:09.357Z,71.89
2022-09-11T11:13:09.427Z,71.66
2022-09-11T11:14:09.464Z,71.96
2022-09-11T11:15:09.756Z,72.56
2022-09-11T11:16:09.334Z,72.33
2022-09-11T11:17:09.300Z,72.83
2022-09-11T11:18:09.276Z,71.83
2022-09-11T11:19:09.274Z,72.69
2022-09-11T11:20:09.259Z,71.96
2022-09-11T11:21:09.665Z,70.56
2022-09-11T11:22:09.227Z,70.06
2022-09-11T11:23:14.505Z,68.86
2022-09-11T11:24:10.196Z,68.86
2022-09-11T11:25:09.205Z,70.42
2022-09-11T11:26:09.396Z,68.23
2022-09-11T11:27:09.165Z,67.93
2022-09-11T11:28:09.146Z,67.53
2022-09-11T11:29:09.154Z,67.30
2022-09-11T11:30:09.142Z,67.69
2022-09-11T11:31:09.137Z,66.06
2022-09-11T11:32:09.394Z,65.77
2022-09-11T11:33:09.172Z,65.53
2022-09-11T11:34:09.080Z,65.73
2022-09-11T11:35:09.077Z,63.64
2022-09-11T11:36:09.233Z,64.57
2022-09-11T11:37:09.323Z,65.53
2022-09-11T11:38:09.016Z,63.24
2022-09-11T11:39:09.030Z,64.17
2022-09-11T11:40:09.048Z,65.10
2022-09-11T11:41:08.986Z,67.30
2022-09-11T11:42:08.983Z,68.16
2022-09-11T11:43:09.312Z,66.27
2022-09-11T11:44:08.955Z,65.87
2022-09-11T11:45:08.954Z,65.77
2022-09-11T11:46:08.952Z,67.36
2022-09-11T11:47:09.555Z,65.17
2022-09-11T11:48:08.916Z,63.74
2022-09-11T11:49:09.227Z,63.44
2022-09-11T11:50:08.863Z,64.47
2022-09-11T11:51:08.888Z,63.84
2022-09-11T11:52:08.845Z,63.74
2022-09-11T11:53:08.832Z,63.11
2022-09-11T11:54:08.824Z,61.52
2022-09-11T11:55:09.235Z,61.22
2022-09-11T11:56:08.799Z,62.12
2022-09-11T11:57:08.783Z,61.65
2022-09-11T11:58:08.765Z,61.77
2022-09-11T11:59:08.757Z,63.77
2022-09-11T12:00:08.751Z,63.90
2022-09-11T12:01:08.987Z,63.50
2022-09-11T12:02:08.763Z,64.93
2022-09-11T12:03:08.725Z,65.73
2022-09-11T12:04:08.690Z,67.03
2022-09-11T12:05:08.856Z,66.73
2022-09-11T12:06:09.134Z,65.93
2022-09-11T12:07:08.662Z,64.63
2022-09-11T12:08:08.637Z,65.33
2022-09-11T12:09:08.626Z,64.43
2022-09-11T12:10:08.615Z,64.73
2022-09-11T12:11:09.061Z,64.83
2022-09-11T12:12:08.587Z,64.90
2022-09-11T12:13:08.575Z,63.73
2022-09-11T12:14:08.589Z,64.06
2022-09-11T12:15:08.564Z,65.06
2022-09-11T12:16:11.201Z,66.59
2022-09-11T12:17:08.771Z,65.99
2022-09-11T12:18:08.536Z,65.99
2022-09-11T12:19:08.514Z,66.29
2022-09-11T12:20:08.475Z,66.96
2022-09-11T12:21:08.465Z,64.56
2022-09-11T12:22:08.497Z,64.56
2022-09-11T12:23:08.504Z,65.06
2022-09-11T12:24:08.484Z,65.86
2022-09-11T12:25:08.416Z,65.43
2022-09-11T12:26:08.405Z,65.43
2022-09-11T12:27:11.176Z,64.40
2022-09-11T12:28:08.445Z,65.00
2022-09-11T12:29:08.364Z,65.40
2022-09-11T12:30:08.395Z,64.57
2022-09-11T12:31:08.399Z,63.97
2022-09-11T12:32:08.345Z,63.67
2022-09-11T12:33:08.314Z,64.20
2022-09-11T12:34:08.831Z,65.93
2022-09-11T12:35:08.311Z,66.43
2022-09-11T12:36:08.265Z,67.06
2022-09-11T12:37:08.277Z,67.29
2022-09-11T12:38:08.248Z,67.86
2022-09-11T12:39:08.234Z,66.56
2022-09-11T12:40:08.320Z,63.56
2022-09-11T12:41:08.204Z,64.00
2022-09-11T12:42:08.193Z,64.89
2022-09-11T12:43:09.205Z,64.09
2022-09-11T12:44:08.173Z,64.59
2022-09-11T12:45:08.236Z,63.82
2022-09-11T12:46:08.198Z,64.75
2022-09-11T12:47:08.135Z,65.66
2022-09-11T12:48:08.114Z,66.13
2022-09-11T12:49:21.714Z,65.83
2022-09-11T12:50:09.313Z,65.33
2022-09-11T12:51:08.132Z,64.62
2022-09-11T12:52:08.054Z,63.19